createdAt,value
2024-02-14T00:00:50.788Z,0.00
2024-02-14T00:01:56.274Z,0.00
2024-02-14T00:03:11.091Z,0.00
2024-02-14T00:03:50.856Z,0.00
2024-02-14T00:04:51.015Z,0.00
2024-02-14T00:05:50.760Z,0.00
2024-02-14T00:06:51.045Z,0.00
2024-02-14T00:07:50.754Z,0.00
2024-02-14T00:08:51.036Z,0.00
2024-02-14T00:09:50.784Z,0.00
2024-02-14T00:10:51.071Z,0.00
2024-02-14T00:11:50.831Z,0.00
2024-02-14T00:13:11.993Z,0.00
2024-02-14T00:13:50.784Z,0.00
2024-02-14T00:14:52.570Z,0.00
2024-02-14T00:15:52.945Z,0.00
2024-02-14T00:16:52.752Z,0.00
2024-02-14T00:17:52.235Z,0.00
2024-02-14T00:18:51.957Z,0.00
2024-02-14T00:19:51.823Z,0.00
2024-02-14T00:20:52.646Z,0.00
2024-02-14T00:21:52.081Z,0.00
2024-02-14T00:23:11.929Z,0.00
2024-02-14T00:23:51.824Z,0.00
2024-02-14T00:24:51.549Z,0.00
2024-02-14T00:25:52.864Z,0.00
2024-02-14T00:26:52.697Z,0.00
2024-02-14T00:27:51.988Z,0.00
2024-02-14T00:28:52.839Z,0.00
2024-02-14T00:29:51.100Z,0.00
2024-02-14T00:30:50.557Z,0.00
2024-02-14T00:31:51.744Z,0.00
2024-02-14T00:33:12.792Z,0.00
2024-02-14T00:33:50.568Z,0.00
2024-02-14T00:34:50.870Z,0.00
2024-02-14T00:35:50.412Z,0.00
2024-02-14T00:36:50.629Z,0.00
2024-02-14T00:37:50.367Z,0.00
2024-02-14T00:38:50.668Z,0.00
2024-02-14T00:39:50.344Z,0.00
2024-02-14T00:40:50.611Z,0.00
2024-02-14T00:41:50.437Z,0.00
2024-02-14T00:43:12.597Z,0.00
2024-02-14T00:43:50.418Z,0.00
2024-02-14T00:44:50.749Z,0.00
2024-02-14T00:45:50.473Z,0.00
2024-02-14T00:46:50.176Z,0.00
2024-02-14T00:47:50.574Z,0.00
2024-02-14T00:48:50.279Z,0.00
2024-02-14T00:49:50.546Z,0.00
2024-02-14T00:50:50.271Z,0.00
2024-02-14T00:51:50.454Z,0.00
2024-02-14T00:53:10.895Z,0.00
2024-02-14T00:53:50.634Z,0.00
2024-02-14T00:54:50.354Z,0.00
2024-02-14T00:55:50.098Z,0.00
2024-02-14T00:56:50.421Z,0.00
2024-02-14T00:57:50.097Z,0.00
2024-02-14T00:58:50.356Z,0.00
2024-02-14T00:59:50.181Z,0.00
2024-02-14T01:00:50.411Z,0.00
2024-02-14T01:01:50.129Z,0.00
2024-02-14T01:03:10.394Z,0.00
2024-02-14T01:03:50.135Z,0.00
2024-02-14T01:04:50.380Z,0.00
2024-02-14T01:05:50.309Z,0.00
2024-02-14T01:06:50.384Z,0.00
2024-02-14T01:07:50.147Z,0.00
2024-02-14T01:08:50.433Z,0.00
2024-02-14T01:09:50.189Z,0.00
2024-02-14T01:10:50.426Z,0.00
2024-02-14T01:11:50.302Z,0.00
2024-02-14T01:13:12.424Z,0.00
2024-02-14T01:13:50.241Z,0.00
2024-02-14T01:14:50.018Z,0.00
2024-02-14T01:15:50.233Z,0.00
2024-02-14T01:16:49.993Z,0.00
2024-02-14T01:17:50.304Z,0.00
2024-02-14T01:18:50.211Z,0.00
2024-02-14T01:19:50.259Z,0.00
2024-02-14T01:20:50.079Z,0.00
2024-02-14T01:21:50.036Z,0.00
2024-02-14T01:23:11.098Z,0.00
2024-02-14T01:23:49.991Z,0.00
2024-02-14T01:24:50.163Z,0.00
2024-02-14T01:25:49.939Z,0.00
2024-02-14T01:26:50.220Z,0.00
2024-02-14T01:27:49.974Z,0.00
2024-02-14T01:28:50.242Z,0.00
2024-02-14T01:29:50.019Z,0.00
2024-02-14T01:30:49.938Z,0.00
2024-02-14T01:31:50.185Z,0.00
2024-02-14T01:33:10.812Z,0.00
2024-02-14T01:33:50.004Z,0.00
2024-02-14T01:34:50.201Z,0.00
2024-02-14T01:35:49.903Z,0.00
2024-02-14T01:36:50.156Z,0.00
2024-02-14T01:37:49.901Z,0.00
2024-02-14T01:38:49.668Z,0.00
2024-02-14T01:39:49.959Z,0.00
2024-02-14T01:40:49.717Z,0.00
2024-02-14T01:41:50.127Z,0.00
2024-02-14T01:43:11.755Z,0.00
2024-02-14T01:43:50.065Z,0.00
2024-02-14T01:44:49.944Z,0.00
2024-02-14T01:45:49.669Z,0.00
2024-02-14T01:46:49.894Z,0.00
2024-02-14T01:47:49.694Z,0.00
2024-02-14T01:48:50.091Z,0.00
2024-02-14T01:49:49.684Z,0.00
2024-02-14T01:50:50.060Z,0.00
2024-02-14T01:51:50.227Z,0.00
2024-02-14T01:53:12.050Z,0.00
2024-02-14T01:53:49.907Z,0.00
2024-02-14T01:54:49.613Z,0.00
2024-02-14T01:55:49.885Z,0.00
2024-02-14T01:56:49.719Z,0.00
2024-02-14T01:57:49.877Z,0.00
2024-02-14T01:58:49.629Z,0.00
2024-02-14T01:59:50.092Z,0.00
2024-02-14T02:00:49.734Z,0.00
2024-02-14T02:01:49.472Z,0.00
2024-02-14T02:03:11.163Z,0.00
2024-02-14T02:03:49.569Z,0.00
2024-02-14T02:04:49.791Z,0.00
2024-02-14T02:05:49.613Z,0.00
2024-02-14T02:06:49.844Z,0.00
2024-02-14T02:07:49.622Z,0.00
2024-02-14T02:08:49.887Z,0.00
2024-02-14T02:09:49.634Z,0.00
2024-02-14T02:10:49.434Z,0.00
2024-02-14T02:11:49.703Z,0.00
2024-02-14T02:13:11.360Z,0.00
2024-02-14T02:13:49.643Z,0.00
2024-02-14T02:14:49.464Z,0.00
2024-02-14T02:15:49.653Z,0.00
2024-02-14T02:16:49.386Z,0.00
2024-02-14T02:17:49.711Z,0.00
2024-02-14T02:18:49.550Z,0.00
2024-02-14T02:19:49.644Z,0.00
2024-02-14T02:20:49.397Z,0.00
2024-02-14T02:21:49.626Z,0.00
2024-02-14T02:23:11.365Z,0.00
2024-02-14T02:23:49.252Z,0.00
2024-02-14T02:24:49.460Z,0.00
2024-02-14T02:25:49.205Z,0.00
2024-02-14T02:26:49.452Z,0.00
2024-02-14T02:27:49.184Z,0.00
2024-02-14T02:28:49.429Z,0.00
2024-02-14T02:29:49.199Z,0.00
2024-02-14T02:30:49.447Z,0.00
2024-02-14T02:31:49.210Z,0.00
2024-02-14T02:33:10.245Z,0.00
2024-02-14T02:33:49.467Z,0.00
2024-02-14T02:34:49.066Z,0.00
2024-02-14T02:35:49.300Z,0.00
2024-02-14T02:36:50.545Z,0.00
2024-02-14T02:37:49.298Z,0.00
2024-02-14T02:38:49.046Z,0.00
2024-02-14T02:39:49.281Z,0.00
2024-02-14T02:40:49.048Z,0.00
2024-02-14T02:41:49.264Z,0.00
2024-02-14T02:43:10.494Z,0.00
2024-02-14T02:43:50.289Z,0.00
2024-02-14T02:44:49.089Z,0.00
2024-02-14T02:45:49.288Z,0.00
2024-02-14T02:46:49.023Z,0.00
2024-02-14T02:47:49.478Z,0.00
2024-02-14T02:48:49.355Z,0.00
2024-02-14T02:49:49.311Z,0.00
2024-02-14T02:50:49.061Z,0.00
2024-02-14T02:51:49.295Z,0.00
2024-02-14T02:53:11.031Z,0.00
2024-02-14T02:53:48.877Z,0.00
2024-02-14T02:54:49.097Z,0.00
2024-02-14T02:55:48.860Z,0.00
2024-02-14T02:56:48.354Z,0.00
2024-02-14T02:57:48.302Z,0.00
2024-02-14T02:58:48.269Z,0.00
2024-02-14T02:59:49.095Z,0.00
2024-02-14T03:00:49.288Z,0.00
2024-02-14T03:01:49.018Z,0.00
2024-02-14T03:03:10.824Z,0.00
2024-02-14T03:03:49.114Z,0.00
2024-02-14T03:04:52.685Z,0.00
2024-02-14T03:05:49.066Z,0.00
2024-02-14T03:06:48.832Z,0.00
2024-02-14T03:07:49.350Z,0.00
2024-02-14T03:08:49.351Z,0.00
2024-02-14T03:09:49.047Z,0.00
2024-02-14T03:10:48.838Z,0.00
2024-02-14T03:11:49.072Z,0.00
2024-02-14T03:13:09.234Z,0.00
2024-02-14T03:13:48.728Z,0.00
2024-02-14T03:14:48.981Z,0.00
2024-02-14T03:15:48.759Z,0.00
2024-02-14T03:16:49.005Z,0.00
2024-02-14T03:17:48.927Z,0.00
2024-02-14T03:18:49.116Z,0.00
2024-02-14T03:19:48.848Z,0.00
2024-02-14T03:20:50.054Z,0.00
2024-02-14T03:21:48.768Z,0.00
2024-02-14T03:23:10.038Z,0.00
2024-02-14T03:23:48.926Z,0.00
2024-02-14T03:24:48.557Z,0.00
2024-02-14T03:25:48.831Z,0.00
2024-02-14T03:26:51.044Z,0.00
2024-02-14T03:27:49.060Z,0.00
2024-02-14T03:28:48.553Z,0.00
2024-02-14T03:29:49.072Z,0.00
2024-02-14T03:30:48.542Z,0.00
2024-02-14T03:31:48.818Z,0.00
2024-02-14T03:33:10.678Z,0.00
2024-02-14T03:33:49.093Z,0.00
2024-02-14T03:34:48.663Z,0.00
2024-02-14T03:35:48.969Z,0.00
2024-02-14T03:36:48.595Z,0.00
2024-02-14T03:37:49.185Z,0.00
2024-02-14T03:38:48.633Z,0.00
2024-02-14T03:39:48.889Z,0.00
2024-02-14T03:40:48.606Z,0.00
2024-02-14T03:41:48.423Z,0.00
2024-02-14T03:43:09.350Z,0.00
2024-02-14T03:43:48.481Z,0.00
2024-02-14T03:44:48.847Z,0.00
2024-02-14T03:45:48.475Z,0.00
2024-02-14T03:46:48.710Z,0.00
2024-02-14T03:47:48.531Z,0.00
2024-02-14T03:48:48.822Z,0.00
2024-02-14T03:49:48.453Z,0.00
2024-02-14T03:50:48.693Z,0.00
2024-02-14T03:51:48.406Z,0.00
2024-02-14T03:53:10.676Z,0.00
2024-02-14T03:53:48.499Z,0.00
2024-02-14T03:54:48.227Z,0.00
2024-02-14T03:55:48.474Z,0.00
2024-02-14T03:56:48.304Z,0.00
2024-02-14T03:57:48.489Z,0.00
2024-02-14T03:58:48.321Z,0.00
2024-02-14T03:59:48.561Z,0.00
2024-02-14T04:00:48.316Z,0.00
2024-02-14T04:01:48.561Z,0.00
2024-02-14T04:03:10.376Z,0.00
2024-02-14T04:03:48.629Z,0.00
2024-02-14T04:04:48.401Z,0.00
2024-02-14T04:05:49.267Z,0.00
2024-02-14T04:06:48.371Z,0.00
2024-02-14T04:07:48.081Z,0.00
2024-02-14T04:08:48.426Z,0.00
2024-02-14T04:09:48.046Z,0.00
2024-02-14T04:10:48.293Z,0.00
2024-02-14T04:11:48.069Z,0.00
2024-02-14T04:13:10.328Z,0.00
2024-02-14T04:13:55.867Z,0.00
2024-02-14T04:14:48.142Z,0.00
2024-02-14T04:15:48.386Z,0.00
2024-02-14T04:16:48.160Z,0.00
2024-02-14T04:17:48.447Z,0.00
2024-02-14T04:18:48.212Z,0.00
2024-02-14T04:19:48.431Z,0.00
2024-02-14T04:20:48.174Z,0.00
2024-02-14T04:21:48.478Z,0.00
2024-02-14T04:23:10.143Z,0.00
2024-02-14T04:23:47.959Z,0.00
2024-02-14T04:24:48.170Z,0.00
2024-02-14T04:25:47.937Z,0.00
2024-02-14T04:26:48.244Z,0.00
2024-02-14T04:27:47.957Z,0.00
2024-02-14T04:28:49.691Z,0.00
2024-02-14T04:29:48.163Z,0.00
2024-02-14T04:30:48.176Z,0.00
2024-02-14T04:31:47.935Z,0.00
2024-02-14T04:33:13.717Z,0.00
2024-02-14T04:33:48.145Z,0.00
2024-02-14T04:34:47.919Z,0.00
2024-02-14T04:35:48.024Z,0.00
2024-02-14T04:36:48.248Z,0.00
2024-02-14T04:37:48.014Z,0.00
2024-02-14T04:38:47.803Z,0.00
2024-02-14T04:39:48.040Z,0.00
2024-02-14T04:40:47.772Z,0.00
2024-02-14T04:41:54.608Z,0.00
2024-02-14T04:43:08.856Z,0.00
2024-02-14T04:43:48.056Z,0.00
2024-02-14T04:44:47.839Z,0.00
2024-02-14T04:45:48.078Z,0.00
2024-02-14T04:46:47.830Z,0.00
2024-02-14T04:47:48.144Z,0.00
2024-02-14T04:48:47.993Z,0.00
2024-02-14T04:49:48.107Z,0.00
2024-02-14T04:50:47.870Z,0.00
2024-02-14T04:51:48.065Z,0.00
2024-02-14T04:53:09.331Z,0.00
2024-02-14T04:53:47.684Z,0.00
2024-02-14T04:54:47.863Z,0.00
2024-02-14T04:55:47.632Z,0.00
2024-02-14T04:56:50.444Z,0.00
2024-02-14T04:57:47.647Z,0.00
2024-02-14T04:58:47.879Z,0.00
2024-02-14T04:59:47.711Z,0.00
2024-02-14T05:00:47.904Z,0.00
2024-02-14T05:01:47.620Z,0.00
2024-02-14T05:03:09.655Z,0.00
2024-02-14T05:03:47.725Z,0.00
2024-02-14T05:04:47.924Z,0.00
2024-02-14T05:05:47.759Z,0.00
2024-02-14T05:06:48.142Z,0.00
2024-02-14T05:07:47.708Z,0.00
2024-02-14T05:08:47.515Z,0.00
2024-02-14T05:09:47.730Z,0.00
2024-02-14T05:10:47.446Z,0.00
2024-02-14T05:11:47.769Z,0.00
2024-02-14T05:13:08.157Z,0.00
2024-02-14T05:13:47.773Z,0.00
2024-02-14T05:14:47.545Z,0.00
2024-02-14T05:15:47.761Z,0.00
2024-02-14T05:16:47.511Z,0.00
2024-02-14T05:17:47.886Z,0.00
2024-02-14T05:18:47.706Z,0.00
2024-02-14T05:19:47.955Z,0.00
2024-02-14T05:20:47.562Z,0.00
2024-02-14T05:21:47.762Z,0.00
2024-02-14T05:23:10.027Z,0.00
2024-02-14T05:23:47.375Z,0.00
2024-02-14T05:24:47.587Z,0.00
2024-02-14T05:25:47.307Z,0.00
2024-02-14T05:26:47.602Z,0.00
2024-02-14T05:27:47.314Z,0.00
2024-02-14T05:28:47.581Z,0.00
2024-02-14T05:29:47.436Z,0.00
2024-02-14T05:30:47.556Z,0.00
2024-02-14T05:31:47.308Z,0.00
2024-02-14T05:33:09.689Z,0.00
2024-02-14T05:33:47.690Z,0.00
2024-02-14T05:34:47.298Z,0.00
2024-02-14T05:35:47.508Z,0.00
2024-02-14T05:36:47.553Z,0.00
2024-02-14T05:37:47.504Z,0.00
2024-02-14T05:38:47.263Z,0.00
2024-02-14T05:39:47.502Z,0.00
2024-02-14T05:40:47.235Z,0.00
2024-02-14T05:41:47.504Z,0.00
2024-02-14T05:43:09.262Z,0.00
2024-02-14T05:43:47.540Z,0.00
2024-02-14T05:44:47.326Z,0.00
2024-02-14T05:45:47.542Z,0.00
2024-02-14T05:46:47.291Z,0.00
2024-02-14T05:47:47.179Z,0.00
2024-02-14T05:48:47.463Z,0.00
2024-02-14T05:49:47.231Z,0.00
2024-02-14T05:50:47.342Z,0.00
2024-02-14T05:51:47.083Z,0.00
2024-02-14T05:53:09.332Z,0.00
2024-02-14T05:53:47.189Z,0.00
2024-02-14T05:54:47.357Z,0.00
2024-02-14T05:55:47.125Z,0.00
2024-02-14T05:56:49.433Z,0.00
2024-02-14T05:57:47.165Z,0.00
2024-02-14T05:58:46.979Z,0.00
2024-02-14T05:59:47.220Z,0.00
2024-02-14T06:00:47.091Z,0.00
2024-02-14T06:01:47.152Z,0.00
2024-02-14T06:03:09.451Z,0.00
2024-02-14T06:03:47.278Z,0.00
2024-02-14T06:04:47.003Z,0.00
2024-02-14T06:05:47.208Z,0.00
2024-02-14T06:06:47.003Z,0.00
2024-02-14T06:07:47.219Z,0.00
2024-02-14T06:08:47.004Z,0.00
2024-02-14T06:09:47.226Z,0.00
2024-02-14T06:10:46.988Z,0.00
2024-02-14T06:11:47.281Z,0.00
2024-02-14T06:13:09.032Z,0.00
2024-02-14T06:13:46.841Z,0.00
2024-02-14T06:14:47.094Z,0.00
2024-02-14T06:15:46.846Z,0.00
2024-02-14T06:16:47.085Z,0.00
2024-02-14T06:17:46.902Z,0.00
2024-02-14T06:18:47.377Z,0.00
2024-02-14T06:19:46.905Z,0.00
2024-02-14T06:20:47.156Z,0.00
2024-02-14T06:21:46.867Z,0.00
2024-02-14T06:23:08.174Z,0.00
2024-02-14T06:23:46.187Z,0.00
2024-02-14T06:24:46.870Z,0.00
2024-02-14T06:25:46.661Z,1.00
2024-02-14T06:26:46.900Z,1.00
2024-02-14T06:27:46.093Z,1.00
2024-02-14T06:28:46.101Z,1.00
2024-02-14T06:29:46.896Z,1.00
2024-02-14T06:30:47.102Z,0.00
2024-02-14T06:31:46.887Z,2.00
2024-02-14T06:33:08.827Z,2.00
2024-02-14T06:33:47.204Z,2.00
2024-02-14T06:34:46.907Z,2.00
2024-02-14T06:35:47.104Z,4.00
2024-02-14T06:36:46.705Z,0.00
2024-02-14T06:37:52.880Z,2.00
2024-02-14T06:38:47.682Z,6.00
2024-02-14T06:39:46.951Z,5.00
2024-02-14T06:40:46.682Z,5.00
2024-02-14T06:41:46.999Z,7.00
2024-02-14T06:43:08.650Z,15.00
2024-02-14T06:43:46.513Z,11.00
2024-02-14T06:44:46.829Z,9.00
2024-02-14T06:45:46.522Z,16.00
2024-02-14T06:46:46.817Z,11.00
2024-02-14T06:47:46.638Z,20.00
2024-02-14T06:48:47.367Z,11.00
2024-02-14T06:49:46.906Z,20.00
2024-02-14T06:50:46.625Z,11.00
2024-02-14T06:51:47.406Z,11.00
2024-02-14T06:53:06.753Z,22.00
2024-02-14T06:53:47.420Z,22.00
2024-02-14T06:54:46.676Z,18.00
2024-02-14T06:55:47.913Z,31.00
2024-02-14T06:56:46.696Z,37.00
2024-02-14T06:57:46.442Z,38.00
2024-02-14T06:58:46.681Z,42.00
2024-02-14T06:59:46.493Z,37.00
2024-02-14T07:00:46.705Z,42.00
2024-02-14T07:01:46.492Z,49.00
2024-02-14T07:03:07.584Z,43.00
2024-02-14T07:03:46.533Z,50.00
2024-02-14T07:04:46.267Z,56.00
2024-02-14T07:05:46.784Z,65.00
2024-02-14T07:06:46.592Z,80.00
2024-02-14T07:07:46.296Z,88.00
2024-02-14T07:08:46.566Z,86.00
2024-02-14T07:09:46.314Z,91.00
2024-02-14T07:10:46.535Z,91.00
2024-02-14T07:11:48.329Z,100.00
2024-02-14T07:13:08.478Z,95.00
2024-02-14T07:13:46.335Z,105.00
2024-02-14T07:14:46.552Z,95.00
2024-02-14T07:15:46.453Z,99.00
2024-02-14T07:16:48.164Z,117.00
2024-02-14T07:17:46.545Z,131.00
2024-02-14T07:18:47.283Z,127.00
2024-02-14T07:19:46.472Z,100.00
2024-02-14T07:20:46.275Z,96.00
2024-02-14T07:21:46.550Z,97.00
2024-02-14T07:23:06.319Z,98.00
2024-02-14T07:23:47.525Z,109.00
2024-02-14T07:24:46.330Z,106.00
2024-02-14T07:25:48.087Z,133.00
2024-02-14T07:26:46.423Z,142.00
2024-02-14T07:27:48.166Z,152.00
2024-02-14T07:28:46.454Z,164.00
2024-02-14T07:29:48.235Z,182.00
2024-02-14T07:30:47.990Z,189.00
2024-02-14T07:31:46.273Z,182.00
2024-02-14T07:33:10.169Z,181.00
2024-02-14T07:33:48.172Z,183.00
2024-02-14T07:34:46.652Z,178.00
2024-02-14T07:35:46.528Z,213.00
2024-02-14T07:36:46.651Z,224.00
2024-02-14T07:37:47.398Z,236.00
2024-02-14T07:38:47.239Z,236.00
2024-02-14T07:39:47.921Z,254.00
2024-02-14T07:40:46.230Z,260.00
2024-02-14T07:41:46.140Z,273.00
2024-02-14T07:43:13.452Z,257.00
2024-02-14T07:43:48.215Z,255.00
2024-02-14T07:44:48.156Z,226.00
2024-02-14T07:45:47.834Z,230.00
2024-02-14T07:46:46.126Z,227.00
2024-02-14T07:47:46.500Z,221.00
2024-02-14T07:48:46.290Z,234.00
2024-02-14T07:49:47.435Z,242.00
2024-02-14T07:50:46.386Z,247.00
2024-02-14T07:51:47.487Z,262.00
2024-02-14T07:53:06.255Z,277.00
2024-02-14T07:53:48.154Z,278.00
2024-02-14T07:54:47.854Z,288.00
2024-02-14T07:55:48.120Z,317.00
2024-02-14T07:56:47.907Z,317.00
2024-02-14T07:57:46.395Z,342.00
2024-02-14T07:58:45.976Z,394.00
2024-02-14T07:59:47.716Z,429.00
2024-02-14T08:00:47.993Z,467.00
2024-02-14T08:01:47.699Z,511.00
2024-02-14T08:03:06.079Z,421.00
2024-02-14T08:03:46.886Z,362.00
2024-02-14T08:04:49.474Z,389.00
2024-02-14T08:05:46.532Z,359.00
2024-02-14T08:06:48.089Z,372.00
2024-02-14T08:07:45.891Z,338.00
2024-02-14T08:08:47.664Z,361.00
2024-02-14T08:09:45.906Z,361.00
2024-02-14T08:10:45.647Z,392.00
2024-02-14T08:11:45.960Z,408.00
2024-02-14T08:13:06.438Z,449.00
2024-02-14T08:13:45.956Z,478.00
2024-02-14T08:14:45.753Z,497.00
2024-02-14T08:15:51.252Z,434.00
2024-02-14T08:16:45.509Z,400.00
2024-02-14T08:17:47.106Z,459.00
2024-02-14T08:18:45.703Z,505.00
2024-02-14T08:19:45.889Z,534.00
2024-02-14T08:20:45.560Z,536.00
2024-02-14T08:21:45.747Z,523.00
2024-02-14T08:23:07.610Z,522.00
2024-02-14T08:23:45.883Z,555.00
2024-02-14T08:24:45.598Z,558.00
2024-02-14T08:25:45.828Z,569.00
2024-02-14T08:26:45.607Z,588.00
2024-02-14T08:27:45.816Z,693.00
2024-02-14T08:28:45.649Z,757.00
2024-02-14T08:29:51.135Z,806.00
2024-02-14T08:30:45.380Z,1056.00
2024-02-14T08:31:45.763Z,1033.00
2024-02-14T08:33:05.578Z,1093.00
2024-02-14T08:33:45.807Z,1050.00
2024-02-14T08:34:45.509Z,966.00
2024-02-14T08:35:45.731Z,1055.00
2024-02-14T08:36:45.404Z,1091.00
2024-02-14T08:37:45.661Z,1025.00
2024-02-14T08:38:45.471Z,1014.00
2024-02-14T08:39:45.637Z,1018.00
2024-02-14T08:40:45.530Z,1133.00
2024-02-14T08:41:45.765Z,1422.00
2024-02-14T08:43:06.957Z,1820.00
2024-02-14T08:43:51.032Z,2156.00
2024-02-14T08:44:45.318Z,2216.00
2024-02-14T08:45:45.553Z,1855.00
2024-02-14T08:46:45.335Z,1641.00
2024-02-14T08:47:45.663Z,1667.00
2024-02-14T08:48:45.404Z,2009.00
2024-02-14T08:49:46.075Z,2517.00
2024-02-14T08:50:45.308Z,2565.00
2024-02-14T08:51:45.539Z,2507.00
2024-02-14T08:53:05.642Z,1763.00
2024-02-14T08:53:45.372Z,1653.00
2024-02-14T08:54:45.399Z,1464.00
2024-02-14T08:55:45.114Z,1551.00
2024-02-14T08:56:45.371Z,1396.00
2024-02-14T08:57:52.429Z,1242.00
2024-02-14T08:58:47.131Z,1310.00
2024-02-14T08:59:45.635Z,1200.00
2024-02-14T09:00:45.297Z,1213.00
2024-02-14T09:01:45.560Z,1227.00
2024-02-14T09:03:06.051Z,1204.00
2024-02-14T09:03:45.730Z,1093.00
2024-02-14T09:04:45.226Z,1135.00
2024-02-14T09:05:46.940Z,1139.00
2024-02-14T09:06:45.338Z,1107.00
2024-02-14T09:07:45.010Z,1011.00
2024-02-14T09:08:45.341Z,816.00
2024-02-14T09:09:44.985Z,764.00
2024-02-14T09:10:45.245Z,758.00
2024-02-14T09:11:45.035Z,642.00
2024-02-14T09:13:07.211Z,677.00
2024-02-14T09:13:45.192Z,812.00
2024-02-14T09:14:45.319Z,1159.00
2024-02-14T09:15:45.056Z,1010.00
2024-02-14T09:16:45.320Z,1073.00
2024-02-14T09:17:45.192Z,1026.00
2024-02-14T09:18:45.386Z,974.00
2024-02-14T09:19:45.151Z,867.00
2024-02-14T09:20:44.930Z,955.00
2024-02-14T09:21:45.110Z,973.00
2024-02-14T09:23:06.361Z,1032.00
2024-02-14T09:23:45.270Z,1141.00
2024-02-14T09:24:44.846Z,1561.00
2024-02-14T09:25:45.102Z,1644.00
2024-02-14T09:26:46.930Z,1775.00
2024-02-14T09:27:45.241Z,1612.00
2024-02-14T09:28:44.976Z,1361.00
2024-02-14T09:29:45.237Z,1313.00
2024-02-14T09:30:45.074Z,1180.00
2024-02-14T09:31:44.718Z,1045.00
2024-02-14T09:33:06.663Z,1063.00
2024-02-14T09:33:44.897Z,1212.00
2024-02-14T09:34:45.114Z,1220.00
2024-02-14T09:35:46.055Z,1359.00
2024-02-14T09:36:47.105Z,2188.00
2024-02-14T09:37:46.911Z,1819.00
2024-02-14T09:38:46.204Z,1784.00
2024-02-14T09:39:46.974Z,1868.00
2024-02-14T09:40:45.944Z,2140.00
2024-02-14T09:41:45.645Z,2340.00
2024-02-14T09:43:04.687Z,1790.00
2024-02-14T09:43:46.467Z,1627.00
2024-02-14T09:44:46.758Z,1146.00
2024-02-14T09:45:45.025Z,1050.00
2024-02-14T09:46:44.795Z,1167.00
2024-02-14T09:47:45.121Z,1172.00
2024-02-14T09:48:44.986Z,1137.00
2024-02-14T09:49:44.679Z,1067.00
2024-02-14T09:50:44.846Z,1128.00
2024-02-14T09:51:44.584Z,955.00
2024-02-14T09:53:06.782Z,954.00
2024-02-14T09:53:44.748Z,1038.00
2024-02-14T09:54:45.080Z,1285.00
2024-02-14T09:55:44.666Z,1467.00
2024-02-14T09:56:44.992Z,1446.00
2024-02-14T09:57:44.684Z,1207.00
2024-02-14T09:58:44.957Z,1219.00
2024-02-14T09:59:44.735Z,1235.00
2024-02-14T10:00:44.429Z,1227.00
2024-02-14T10:01:44.682Z,1126.00
2024-02-14T10:03:14.813Z,1030.00
2024-02-14T10:03:44.579Z,1103.00
2024-02-14T10:04:44.899Z,1246.00
2024-02-14T10:05:44.620Z,1464.00
2024-02-14T10:06:44.915Z,1269.00
2024-02-14T10:07:44.663Z,1304.00
2024-02-14T10:08:55.237Z,1359.00
2024-02-14T10:09:46.126Z,1441.00
2024-02-14T10:10:49.954Z,1477.00
2024-02-14T10:11:45.709Z,1454.00
2024-02-14T10:13:04.488Z,1577.00
2024-02-14T10:13:44.760Z,1305.00
2024-02-14T10:14:44.589Z,1165.00
2024-02-14T10:15:44.737Z,1157.00
2024-02-14T10:16:44.490Z,1134.00
2024-02-14T10:17:44.259Z,1293.00
2024-02-14T10:18:44.815Z,1505.00
2024-02-14T10:19:46.285Z,1312.00
2024-02-14T10:20:44.737Z,1169.00
2024-02-14T10:21:45.883Z,1121.00
2024-02-14T10:23:06.659Z,1339.00
2024-02-14T10:23:44.554Z,1414.00
2024-02-14T10:24:44.186Z,1639.00
2024-02-14T10:25:44.449Z,1612.00
2024-02-14T10:26:43.684Z,1469.00
2024-02-14T10:27:46.377Z,1373.00
2024-02-14T10:28:46.429Z,1513.00
2024-02-14T10:29:45.431Z,1633.00
2024-02-14T10:30:45.163Z,1814.00
2024-02-14T10:31:44.406Z,1874.00
2024-02-14T10:33:13.436Z,1844.00
2024-02-14T10:33:45.095Z,2278.00
2024-02-14T10:34:44.425Z,2702.00
2024-02-14T10:35:44.197Z,2584.00
2024-02-14T10:36:44.395Z,2621.00
2024-02-14T10:37:44.114Z,2420.00
2024-02-14T10:38:44.409Z,1835.00
2024-02-14T10:39:44.111Z,2421.00
2024-02-14T10:40:44.393Z,2158.00
2024-02-14T10:41:44.136Z,2460.00
2024-02-14T10:43:04.410Z,2358.00
2024-02-14T10:43:44.145Z,2289.00
2024-02-14T10:44:44.425Z,1955.00
2024-02-14T10:45:44.151Z,2026.00
2024-02-14T10:46:44.436Z,1942.00
2024-02-14T10:47:44.382Z,1841.00
2024-02-14T10:48:44.483Z,1561.00
2024-02-14T10:49:44.297Z,1442.00
2024-02-14T10:50:44.418Z,1504.00
2024-02-14T10:51:44.135Z,1562.00
2024-02-14T10:53:04.402Z,1891.00
2024-02-14T10:53:44.247Z,1996.00
2024-02-14T10:54:44.441Z,1838.00
2024-02-14T10:55:44.150Z,1769.00
2024-02-14T10:56:43.972Z,1642.00
2024-02-14T10:57:44.182Z,1638.00
2024-02-14T10:58:43.923Z,1453.00
2024-02-14T10:59:46.179Z,1467.00
2024-02-14T11:00:44.007Z,1385.00
2024-02-14T11:01:44.355Z,1709.00
2024-02-14T11:03:04.039Z,1799.00
2024-02-14T11:03:44.304Z,1830.00
2024-02-14T11:04:51.269Z,2136.00
2024-02-14T11:05:46.084Z,2294.00
2024-02-14T11:06:44.665Z,2158.00
2024-02-14T11:07:44.080Z,2160.00
2024-02-14T11:08:43.860Z,1823.00
2024-02-14T11:09:44.174Z,1978.00
2024-02-14T11:10:43.850Z,1873.00
2024-02-14T11:11:44.134Z,1744.00
2024-02-14T11:13:03.881Z,1667.00
2024-02-14T11:13:44.217Z,1576.00
2024-02-14T11:14:43.964Z,1335.00
2024-02-14T11:15:44.153Z,1190.00
2024-02-14T11:16:43.890Z,1109.00
2024-02-14T11:17:44.260Z,1095.00
2024-02-14T11:18:44.075Z,1162.00
2024-02-14T11:19:45.920Z,1090.00
2024-02-14T11:20:43.970Z,1126.00
2024-02-14T11:21:44.028Z,1183.00
2024-02-14T11:23:04.031Z,1282.00
2024-02-14T11:23:43.753Z,1250.00
2024-02-14T11:24:45.926Z,1239.00
2024-02-14T11:25:43.726Z,1259.00
2024-02-14T11:26:44.059Z,1148.00
2024-02-14T11:27:43.837Z,1413.00
2024-02-14T11:28:44.060Z,1270.00
2024-02-14T11:29:43.880Z,1203.00
2024-02-14T11:30:43.594Z,1747.00
2024-02-14T11:31:43.850Z,1557.00
2024-02-14T11:33:03.681Z,1817.00
2024-02-14T11:33:44.950Z,1855.00
2024-02-14T11:34:45.788Z,1642.00
2024-02-14T11:35:43.903Z,1536.00
2024-02-14T11:36:43.625Z,1493.00
2024-02-14T11:37:44.849Z,1530.00
2024-02-14T11:38:43.669Z,1411.00
2024-02-14T11:39:43.859Z,1392.00
2024-02-14T11:40:43.649Z,1386.00
2024-02-14T11:41:43.467Z,1456.00
2024-02-14T11:43:03.698Z,1575.00
2024-02-14T11:43:43.429Z,1510.00
2024-02-14T11:44:43.714Z,1588.00
2024-02-14T11:45:43.415Z,1629.00
2024-02-14T11:46:43.674Z,1671.00
2024-02-14T11:47:50.851Z,1520.00
2024-02-14T11:48:46.361Z,1506.00
2024-02-14T11:49:43.547Z,1504.00
2024-02-14T11:50:43.724Z,1616.00
2024-02-14T11:51:43.351Z,1771.00
2024-02-14T11:53:03.685Z,1882.00
2024-02-14T11:53:43.399Z,1736.00
2024-02-14T11:54:43.623Z,1952.00
2024-02-14T11:55:43.452Z,1904.00
2024-02-14T11:56:43.667Z,1788.00
2024-02-14T11:57:43.440Z,1862.00
2024-02-14T11:58:43.766Z,1827.00
2024-02-14T11:59:43.471Z,1931.00
2024-02-14T12:00:43.262Z,1984.00
2024-02-14T12:01:43.452Z,2017.00
2024-02-14T12:03:03.320Z,2011.00
2024-02-14T12:03:43.461Z,2026.00
2024-02-14T12:04:43.751Z,1947.00
2024-02-14T12:05:43.960Z,1911.00
2024-02-14T12:06:43.377Z,1722.00
2024-02-14T12:07:43.568Z,1647.00
2024-02-14T12:08:43.238Z,1638.00
2024-02-14T12:09:45.455Z,1691.00
2024-02-14T12:10:43.256Z,1592.00
2024-02-14T12:11:43.705Z,1671.00
2024-02-14T12:13:03.278Z,1686.00
2024-02-14T12:13:45.558Z,1896.00
2024-02-14T12:14:43.397Z,2000.00
2024-02-14T12:15:43.535Z,1793.00
2024-02-14T12:16:43.487Z,1656.00
2024-02-14T12:17:43.179Z,1666.00
2024-02-14T12:18:43.393Z,1779.00
2024-02-14T12:19:43.171Z,1715.00
2024-02-14T12:20:43.319Z,1843.00
2024-02-14T12:21:43.047Z,1867.00
2024-02-14T12:23:03.305Z,1226.00
2024-02-14T12:23:45.146Z,1419.00
2024-02-14T12:24:45.450Z,1574.00
2024-02-14T12:25:45.262Z,1505.00
2024-02-14T12:26:44.757Z,1449.00
2024-02-14T12:27:45.447Z,1611.00
2024-02-14T12:28:45.216Z,1396.00
2024-02-14T12:29:45.102Z,1580.00
2024-02-14T12:30:45.450Z,1373.00
2024-02-14T12:31:45.275Z,1318.00
2024-02-14T12:33:03.245Z,1282.00
2024-02-14T12:33:44.608Z,1248.00
2024-02-14T12:34:44.768Z,1211.00
2024-02-14T12:35:44.089Z,1164.00
2024-02-14T12:36:44.879Z,1120.00
2024-02-14T12:37:45.188Z,1245.00
2024-02-14T12:38:44.054Z,1509.00
2024-02-14T12:39:44.861Z,1491.00
2024-02-14T12:40:45.239Z,1690.00
2024-02-14T12:41:44.979Z,1715.00
2024-02-14T12:43:03.287Z,1836.00
2024-02-14T12:43:44.097Z,2003.00
2024-02-14T12:44:44.909Z,1662.00
2024-02-14T12:45:45.265Z,1786.00
2024-02-14T12:46:44.999Z,1572.00
2024-02-14T12:47:44.774Z,1527.00